Nearby METAR Reports

KLNK - Lincoln, Nebraska, USA
Distance from station: WNW 8mi, 13km
Updated: Tue, 17-May-2022 9:54am CDT
Clear
Clear
 Wind from SSE
Wind: SSE 18 mph , 30 km/h, Gust: 26 mph , 43 km/h
Temperature: 75°F , 24°C
Dew Point: 55°F , 13°C
Humidity: 50%
Barometer: 29.88 inHg , 1011.9 hPa
Clouds: Clear
Visibility: 10 miles , 16 km
2022/05/17 14:54 KLNK 171454Z 16016G23KT 10SM CLR 24/13 A2988 RMK AO2 LTG DSNT N SLP110 T02390133 51002
KAHQ - Wahoo, Nebraska, USA
Distance from station: N 31mi, 49km
Updated: Tue, 17-May-2022 9:55am CDT
Mostly Cloudy
Mostly Cloudy
 Wind from SSE
Wind: SSE 8 mph , 13 km/h
Temperature: 72°F , 22°C
Dew Point: 52°F , 11°C
Humidity: 50%
Barometer: 29.91 inHg , 1012.9 hPa
Clouds: Mostly Cloudy
Visibility: 10 miles , 16 km
Cloud details: Partly Cloudy 5000 ft
Partly Cloudy 10000 ft
Mostly Cloudy 12000 ft
2022/05/17 14:55 KAHQ 171455Z AUTO 16007KT 10SM SCT050 SCT100 BKN120 22/11 A2991 RMK AO2 T02210113
 
KBIE - Beatrice Municip, Nebraska, USA
Distance from station: S 36mi, 57km
Updated: Tue, 17-May-2022 9:55am CDT
Clear
Clear
 Wind from S
Wind: S 16 mph , 26 km/h, Gust: 25 mph , 41 km/h
Temperature: 75°F , 24°C
Dew Point: 57°F , 14°C
Humidity: 54%
Barometer: 29.87 inHg , 1011.5 hPa
Clouds: Clear
Visibility: 10 miles , 16 km
2022/05/17 14:55 KBIE 171455Z AUTO 18014G22KT 10SM CLR 24/14 A2987 RMK AO2 LTG DSNT N T02360137
KMLE - Omaha/Millard, Nebraska, USA
Distance from station: NE 39mi, 63km
Updated: Tue, 17-May-2022 9:55am CDT
Clear
Clear
 Wind from SE
Wind: SE 10 mph , 17 km/h
Temperature: 73°F , 23°C
Dew Point: 54°F , 12°C
Humidity: 50%
Barometer: 29.91 inHg , 1012.9 hPa
Clouds: Clear
Visibility: 10 miles , 16 km
2022/05/17 14:55 KMLE 171455Z AUTO 13009KT 10SM CLR 23/12 A2991 RMK AO2 LTG DSNT W AND NW T02280124
 
KPMV - Plattsmouth Muni, Nebraska, USA
Distance from station: ENE 39mi, 63km
Updated: Tue, 17-May-2022 9:55am CDT
Clear
Clear
 Wind from SE
Wind: SE 10 mph , 17 km/h
Temperature: 73°F , 23°C
Dew Point: 52°F , 11°C
Humidity: 47%
Barometer: 29.92 inHg , 1013.2 hPa
Clouds: Clear
Visibility: 10 miles , 16 km
2022/05/17 14:55 KPMV 171455Z AUTO 14009KT 10SM CLR 23/11 A2992 RMK AO2 LTG DSNT NW T02320113
KAFK - Nebraska City, Nebraska, USA
Distance from station: ESE 43mi, 69km
Updated: Tue, 17-May-2022 9:55am CDT
Clear
Clear
 Wind from S
Wind: S 15 mph , 24 km/h, Gust: 22 mph , 35 km/h
Temperature: 73°F , 23°C
Dew Point: 54°F , 12°C
Humidity: 50%
Barometer: 29.91 inHg , 1012.9 hPa
Clouds: Clear
Visibility: 10 miles , 16 km
2022/05/17 14:55 KAFK 171455Z AUTO 18013G19KT 10SM CLR 23/12 A2991 RMK AO2 LTG DSNT NW T02300121
 
KOFF - Offutt Afb/Belle, Nebraska, USA
Distance from station: ENE 44mi, 70km
Updated: Tue, 17-May-2022 9:56am CDT
Partly Cloudy
Partly Cloudy
 Wind from SSE
Wind: SSE 13 mph , 20 km/h
Temperature: 75°F , 24°C
Dew Point: 52°F , 11°C
Humidity: 44%
Barometer: 29.94 inHg , 1013.9 hPa
Clouds: Partly Cloudy
Visibility: 9 miles , 14 km
Cloud details: Partly Cloudy 13000 ft
2022/05/17 14:56 KOFF 171456Z 15011KT 9SM SCT130 24/11 A2994 RMK AO2A SLP118 ALSTG/SLP ESTMD 53002 PWINO PNO FZRANO TSNO VISNO RWY12 CHINO RWY12 $
KFET - Fremont Muni Arp, Nebraska, USA
Distance from station: N 46mi, 74km
Updated: Tue, 17-May-2022 9:55am CDT
Nearby thunderstorm, Mostly cloudy
Nearby thunderstorm, Mostly cloudy
 Wind from ESE
Wind: ESE 9 mph , 15 km/h
Temperature: 72°F , 22°C
Dew Point: 55°F , 13°C
Humidity: 57%
Barometer: 29.91 inHg , 1012.9 hPa
Summary: Nearby Thunderstorm
Clouds: Mostly Cloudy
Visibility: 10 miles , 16 km
Cloud details: Mostly Cloudy 5000 ft
2022/05/17 14:55 KFET 171455Z AUTO 12008KT 10SM VCTS BKN050 22/13 A2991 RMK AO2 LTG DSNT SW THRU NW T02230129
 
KBTA - Blair Muni, Nebraska, USA
Distance from station: NNE 51mi, 82km
Updated: Tue, 17-May-2022 9:55am CDT
Clear
Clear
 Wind from SE
Wind: SE 9 mph , 15 km/h
Temperature: 73°F , 23°C
Dew Point: 54°F , 12°C
Humidity: 50%
Barometer: 29.92 inHg , 1013.2 hPa
Clouds: Clear
Visibility: 10 miles , 16 km
2022/05/17 14:55 KBTA 171455Z AUTO 13008KT 10SM CLR 23/12 A2992 RMK AO2 LTG DSNT W AND NW T02320119
KJYR - York, Nebraska, USA
Distance from station: W 52mi, 84km
Updated: Tue, 17-May-2022 9:55am CDT
Clear
Clear
 Wind from S
Wind: S 16 mph , 26 km/h
Temperature: 72°F , 22°C
Dew Point: 59°F , 15°C
Humidity: 65%
Barometer: 29.86 inHg , 1011.2 hPa
Clouds: Clear
Visibility: 10 miles , 16 km
2022/05/17 14:55 KJYR 171455Z AUTO 18014KT 10SM CLR 22/15 A2986 RMK AO2 LTG DSNT N AND NE
 
KOMA - Omaha/Eppley, Nebraska, USA
Distance from station: NE 53mi, 85km
Updated: Tue, 17-May-2022 9:52am CDT
Mostly Cloudy
Mostly Cloudy
 Wind from SE
Wind: SE 9 mph , 15 km/h
Temperature: 73°F , 23°C
Dew Point: 54°F , 12°C
Humidity: 50%
Barometer: 29.92 inHg , 1013.2 hPa
Clouds: Mostly Cloudy
Visibility: 10 miles , 16 km
Cloud details: Few Clouds 15000 ft
Mostly Cloudy 20000 ft
2022/05/17 14:52 KOMA 171452Z 13008KT 10SM FEW150 BKN200 23/12 A2992 RMK AO2 SLP123 T02330122 55001
KOLU - Columbus Muni, Nebraska, USA
Distance from station: NW 58mi, 93km
Updated: Tue, 17-May-2022 9:56am CDT
Mostly Cloudy
Mostly Cloudy
 Wind from SE
Wind: SE 12 mph , 19 km/h
Temperature: 73°F , 23°C
Dew Point: 55°F , 13°C
Humidity: 53%
Barometer: 29.87 inHg , 1011.5 hPa
Clouds: Mostly Cloudy
Visibility: 10 miles , 16 km
Cloud details: Few Clouds 5000 ft
Partly Cloudy 6500 ft
Mostly Cloudy 8500 ft
2022/05/17 14:56 KOLU 171456Z AUTO 14010KT 10SM FEW050 SCT065 BKN085 23/13 A2987 RMK AO2 LTG DSNT N-SE SLP107 T02280128 50001